X  Close Metar Aviation Weather Data     KNPA Naval Air Station Pensacola Forrest Sherman Field
Temperature
50°F Temperature
46°F Dewpoint
88% Humidity



Wind
6 MPH
10 KM/H
3 M/S
5 KTS



340°
NNW
Current Conditions

Clear Clear
Pressure 1019.62 (hPa) - 30.11 (inHg)
Visibility 9.9 (mile) - 16 (km)
Airport
Airport-code KNPA

Location: Naval Air Station Pensacola Forrest Sherman Field
Distance: 1 (mi)

Metar:
KNPA 290656Z AUTO 34005KT 10SM CLR 10/08 A3011 RMK AO2 SLP197 T01000083 $

Time: 29-11-2021 00:56 CST